createdAt,value
2023-05-16T00:00:40.560Z,10.60
2023-05-16T00:03:07.542Z,10.40
2023-05-16T00:05:34.770Z,10.50
2023-05-16T00:08:01.693Z,10.60
2023-05-16T00:10:28.784Z,10.60
2023-05-16T00:12:56.364Z,10.60
2023-05-16T00:15:25.139Z,10.60
2023-05-16T00:17:52.655Z,10.60
2023-05-16T00:20:23.532Z,10.50
2023-05-16T00:22:51.100Z,10.50
2023-05-16T00:25:18.375Z,10.70
2023-05-16T00:27:45.469Z,10.70
2023-05-16T00:30:12.828Z,10.70
2023-05-16T00:32:39.822Z,10.80
2023-05-16T00:35:07.442Z,10.80
2023-05-16T00:37:34.445Z,10.60
2023-05-16T00:40:01.313Z,10.70
2023-05-16T00:42:28.215Z,10.80
2023-05-16T00:44:55.098Z,10.70
2023-05-16T00:47:22.024Z,10.80
2023-05-16T00:49:49.130Z,10.80
2023-05-16T00:52:16.428Z,10.80
2023-05-16T00:54:43.374Z,10.70
2023-05-16T00:57:10.596Z,10.70
2023-05-16T00:59:37.571Z,10.80
2023-05-16T01:02:04.679Z,10.80
2023-05-16T01:04:32.619Z,10.80
2023-05-16T01:07:00.605Z,10.90
2023-05-16T01:09:27.479Z,10.80
2023-05-16T01:12:21.995Z,10.90
2023-05-16T01:15:13.032Z,11.00
2023-05-16T01:18:09.633Z,11.00
2023-05-16T01:20:55.885Z,11.10
2023-05-16T01:23:50.530Z,11.10
2023-05-16T01:26:23.346Z,11.00
2023-05-16T01:28:51.814Z,10.90
2023-05-16T01:31:19.730Z,10.90
2023-05-16T01:33:47.309Z,10.90
2023-05-16T01:36:30.491Z,11.00
2023-05-16T01:39:22.773Z,11.00
2023-05-16T01:42:12.797Z,11.10
2023-05-16T01:44:49.070Z,11.10
2023-05-16T01:47:19.362Z,11.20
2023-05-16T01:49:53.154Z,11.10
2023-05-16T01:52:28.299Z,11.00
2023-05-16T01:54:57.978Z,11.10
2023-05-16T01:57:27.178Z,11.00
2023-05-16T01:59:54.175Z,11.00
2023-05-16T02:02:21.119Z,11.00
2023-05-16T02:04:47.967Z,11.00
2023-05-16T02:07:15.317Z,11.00
2023-05-16T02:09:42.361Z,11.00
2023-05-16T02:12:09.366Z,11.00
2023-05-16T02:14:36.339Z,10.90
2023-05-16T02:17:03.356Z,10.90
2023-05-16T02:19:30.318Z,11.00
2023-05-16T02:21:57.340Z,11.00
2023-05-16T02:24:24.236Z,10.90
2023-05-16T02:26:51.144Z,10.90
2023-05-16T02:29:18.570Z,10.90
2023-05-16T02:31:45.556Z,10.90
2023-05-16T02:34:12.502Z,11.00
2023-05-16T02:36:39.399Z,10.90
2023-05-16T02:39:07.712Z,10.90
2023-05-16T02:41:34.682Z,10.90
2023-05-16T02:44:01.602Z,10.80
2023-05-16T02:46:34.168Z,10.90
2023-05-16T02:49:01.903Z,10.80
2023-05-16T02:51:29.049Z,10.90
2023-05-16T02:54:02.489Z,10.90
2023-05-16T02:56:29.387Z,11.00
2023-05-16T02:58:56.467Z,11.00
2023-05-16T03:01:23.625Z,10.90
2023-05-16T03:03:51.144Z,10.90
2023-05-16T03:06:18.393Z,10.90
2023-05-16T03:08:45.327Z,10.80
2023-05-16T03:11:12.260Z,10.80
2023-05-16T03:13:39.155Z,10.80
2023-05-16T03:16:06.697Z,10.80
2023-05-16T03:18:33.783Z,10.80
2023-05-16T03:21:01.615Z,10.90
2023-05-16T03:23:28.566Z,11.00
2023-05-16T03:25:56.254Z,10.90
2023-05-16T03:28:23.187Z,10.90
2023-05-16T03:30:50.091Z,10.90
2023-05-16T03:33:17.434Z,11.00
2023-05-16T03:35:44.847Z,11.00
2023-05-16T03:38:12.190Z,10.80
2023-05-16T03:40:40.598Z,10.70
2023-05-16T03:43:07.514Z,10.70
2023-05-16T03:45:34.408Z,10.70
2023-05-16T03:48:01.490Z,10.80
2023-05-16T03:50:28.798Z,10.90
2023-05-16T03:52:55.686Z,10.90
2023-05-16T03:55:22.555Z,10.80
2023-05-16T03:57:51.237Z,10.80
2023-05-16T04:00:18.347Z,10.90
2023-05-16T04:02:45.538Z,10.80
2023-05-16T04:05:12.688Z,10.80
2023-05-16T04:07:41.008Z,10.80
2023-05-16T04:10:09.202Z,10.70
2023-05-16T04:12:36.227Z,10.80
2023-05-16T04:15:04.447Z,10.80
2023-05-16T04:17:31.624Z,10.70
2023-05-16T04:19:59.045Z,10.70
2023-05-16T04:22:27.501Z,10.80
2023-05-16T04:24:54.419Z,10.90
2023-05-16T04:27:21.425Z,10.90
2023-05-16T04:29:48.369Z,10.90
2023-05-16T04:32:15.437Z,10.70
2023-05-16T04:34:44.251Z,10.60
2023-05-16T04:37:11.686Z,10.70
2023-05-16T04:39:38.738Z,10.70
2023-05-16T04:42:06.510Z,10.90
2023-05-16T04:44:34.520Z,11.00
2023-05-16T04:47:01.788Z,11.10
2023-05-16T04:49:28.783Z,11.00
2023-05-16T04:51:55.831Z,11.10
2023-05-16T04:54:22.777Z,11.00
2023-05-16T04:56:49.645Z,11.00
2023-05-16T04:59:16.592Z,11.00
2023-05-16T05:01:43.495Z,10.90
2023-05-16T05:04:10.431Z,10.80
2023-05-16T05:06:37.672Z,10.90
2023-05-16T05:09:06.041Z,10.80
2023-05-16T05:11:33.418Z,10.80
2023-05-16T05:14:00.346Z,10.80
2023-05-16T05:16:27.353Z,10.80
2023-05-16T05:18:54.297Z,10.70
2023-05-16T05:21:22.079Z,10.70
2023-05-16T05:23:49.842Z,10.70
2023-05-16T05:26:17.134Z,10.70
2023-05-16T05:28:50.792Z,10.70
2023-05-16T05:31:24.719Z,10.70
2023-05-16T05:33:51.612Z,10.80
2023-05-16T05:36:18.564Z,11.00
2023-05-16T05:38:45.488Z,11.10
2023-05-16T05:41:13.316Z,11.20
2023-05-16T05:43:40.185Z,11.20
2023-05-16T05:46:07.414Z,11.40
2023-05-16T05:48:34.693Z,11.40
2023-05-16T05:51:01.596Z,11.50
2023-05-16T05:53:28.641Z,11.50
2023-05-16T05:55:55.720Z,11.40
2023-05-16T05:58:23.154Z,11.40
2023-05-16T06:00:50.126Z,11.40
2023-05-16T06:03:17.216Z,11.40
2023-05-16T06:05:44.396Z,11.50
2023-05-16T06:08:11.364Z,11.80
2023-05-16T06:10:38.277Z,12.30
2023-05-16T06:13:05.202Z,12.70
2023-05-16T06:15:32.172Z,13.10
2023-05-16T06:17:59.397Z,13.80
2023-05-16T06:20:26.552Z,14.20
2023-05-16T06:22:53.561Z,14.30
2023-05-16T06:25:20.548Z,14.50
2023-05-16T06:27:47.619Z,14.50
2023-05-16T06:30:14.560Z,14.80
2023-05-16T06:32:41.643Z,14.90
2023-05-16T06:35:09.749Z,14.90
2023-05-16T06:37:36.818Z,14.80
2023-05-16T06:40:03.896Z,14.50
2023-05-16T06:42:30.885Z,14.40
2023-05-16T06:44:57.849Z,13.90
2023-05-16T06:47:24.822Z,13.80
2023-05-16T06:49:51.998Z,13.80
2023-05-16T06:52:18.933Z,13.80
2023-05-16T06:54:45.974Z,14.00
2023-05-16T06:57:13.461Z,14.10
2023-05-16T06:59:40.590Z,14.40
2023-05-16T07:02:07.599Z,15.30
2023-05-16T07:04:36.674Z,15.30
2023-05-16T07:07:04.747Z,15.50
2023-05-16T07:09:31.730Z,15.50
2023-05-16T07:11:58.613Z,15.10
2023-05-16T07:14:25.676Z,14.50
2023-05-16T07:16:53.111Z,14.00
2023-05-16T07:19:20.122Z,14.20
2023-05-16T07:21:47.198Z,14.50
2023-05-16T07:24:14.136Z,14.40
2023-05-16T07:26:41.057Z,14.60
2023-05-16T07:29:08.092Z,14.80
2023-05-16T07:31:35.064Z,14.90
2023-05-16T07:34:01.996Z,15.20
2023-05-16T07:36:28.959Z,15.60
2023-05-16T07:38:56.026Z,16.20
2023-05-16T07:41:22.985Z,16.60
2023-05-16T07:43:49.889Z,16.50
2023-05-16T07:46:16.885Z,16.30
2023-05-16T07:48:43.861Z,16.80
2023-05-16T07:51:10.918Z,17.00
2023-05-16T07:53:37.832Z,17.30
2023-05-16T07:56:05.570Z,17.00
2023-05-16T07:58:32.824Z,16.50
2023-05-16T08:01:00.491Z,16.80
2023-05-16T08:03:27.750Z,17.60
2023-05-16T08:05:54.802Z,17.60
2023-05-16T08:08:21.906Z,16.90
2023-05-16T08:10:48.921Z,16.10
2023-05-16T08:13:15.902Z,16.40
2023-05-16T08:15:43.365Z,17.00
2023-05-16T08:18:15.132Z,16.90
2023-05-16T08:20:42.447Z,16.60
2023-05-16T08:23:09.912Z,16.00
2023-05-16T08:25:36.995Z,16.30
2023-05-16T08:28:04.198Z,17.20
2023-05-16T08:30:31.459Z,17.80
2023-05-16T08:32:58.486Z,18.40
2023-05-16T08:35:25.881Z,18.50
2023-05-16T08:37:53.099Z,18.80
2023-05-16T08:40:20.477Z,18.90
2023-05-16T08:42:47.415Z,18.60
2023-05-16T08:45:14.660Z,18.30
2023-05-16T08:47:44.359Z,17.40
2023-05-16T08:50:11.987Z,16.70
2023-05-16T08:52:42.208Z,16.40
2023-05-16T08:55:11.647Z,16.20
2023-05-16T08:57:39.730Z,16.00
2023-05-16T09:00:13.567Z,16.60
2023-05-16T09:02:42.594Z,17.60
2023-05-16T09:05:12.217Z,18.50
2023-05-16T09:07:39.547Z,18.70
2023-05-16T09:10:10.526Z,18.50
2023-05-16T09:12:38.157Z,17.20
2023-05-16T09:15:06.972Z,16.40
2023-05-16T09:17:45.494Z,16.20
2023-05-16T09:20:20.220Z,16.20
2023-05-16T09:22:52.826Z,17.00
2023-05-16T09:27:57.755Z,16.30
2023-05-16T09:30:35.087Z,16.20
2023-05-16T09:33:02.535Z,16.90
2023-05-16T09:37:59.664Z,17.90
2023-05-16T09:40:26.575Z,18.80
2023-05-16T09:43:17.480Z,19.60
2023-05-16T09:45:49.347Z,19.60
2023-05-16T09:48:17.308Z,18.20
2023-05-16T09:50:52.837Z,17.20
2023-05-16T09:53:33.536Z,16.30
2023-05-16T09:56:02.099Z,16.00
2023-05-16T09:58:33.358Z,15.90
2023-05-16T10:01:00.842Z,16.40
2023-05-16T10:03:29.138Z,17.80
2023-05-16T10:05:56.399Z,18.60
2023-05-16T10:08:25.456Z,18.70
2023-05-16T10:10:57.180Z,18.90
2023-05-16T10:13:36.029Z,18.30
2023-05-16T10:16:11.735Z,17.30
2023-05-16T10:18:40.293Z,16.40
2023-05-16T10:21:13.614Z,16.70
2023-05-16T10:23:44.566Z,17.30
2023-05-16T10:26:14.375Z,17.50
2023-05-16T10:28:42.053Z,17.00
2023-05-16T10:31:11.057Z,16.80
2023-05-16T10:33:39.543Z,17.10
2023-05-16T10:36:10.986Z,17.30
2023-05-16T10:38:39.343Z,17.70
2023-05-16T10:41:07.727Z,18.10
2023-05-16T10:43:34.817Z,18.20
2023-05-16T10:46:12.196Z,18.50
2023-05-16T10:48:40.514Z,18.30
2023-05-16T10:51:22.852Z,17.90
2023-05-16T10:53:55.851Z,17.20
2023-05-16T10:56:24.988Z,16.20
2023-05-16T10:58:54.445Z,15.40
2023-05-16T11:01:21.460Z,15.10
2023-05-16T11:03:57.568Z,14.80
2023-05-16T11:06:29.123Z,14.80
2023-05-16T11:09:11.055Z,15.20
2023-05-16T11:11:49.160Z,15.90
2023-05-16T11:14:33.217Z,16.10
2023-05-16T11:17:19.214Z,15.70
2023-05-16T11:19:49.754Z,15.40
2023-05-16T11:22:19.633Z,15.10
2023-05-16T11:24:53.797Z,15.10
2023-05-16T11:27:32.755Z,15.30
2023-05-16T11:30:21.769Z,16.30
2023-05-16T11:32:49.254Z,16.70
2023-05-16T11:35:18.259Z,16.30
2023-05-16T11:37:47.078Z,16.40
2023-05-16T11:40:14.854Z,15.80
2023-05-16T11:42:44.269Z,14.90
2023-05-16T11:45:12.427Z,14.40
2023-05-16T11:47:40.772Z,14.40
2023-05-16T11:50:11.786Z,14.60
2023-05-16T11:52:38.937Z,14.90
2023-05-16T11:55:11.304Z,14.70
2023-05-16T11:57:44.455Z,14.70
2023-05-16T12:00:19.868Z,14.50
2023-05-16T12:02:47.896Z,14.10
2023-05-16T12:05:16.859Z,13.90
2023-05-16T12:07:44.741Z,13.60
2023-05-16T12:10:14.499Z,13.60
2023-05-16T12:12:44.968Z,13.80
2023-05-16T12:15:13.494Z,14.30
2023-05-16T12:17:42.004Z,14.80
2023-05-16T12:20:14.695Z,15.30
2023-05-16T12:22:45.594Z,15.40
2023-05-16T12:25:30.657Z,15.30
2023-05-16T12:28:00.567Z,15.00
2023-05-16T12:30:29.629Z,15.10
2023-05-16T12:33:03.366Z,15.40
2023-05-16T12:35:34.010Z,16.00
2023-05-16T12:38:05.617Z,16.00
2023-05-16T12:40:32.671Z,15.70
2023-05-16T12:42:59.826Z,15.60
2023-05-16T12:45:28.127Z,15.40
2023-05-16T12:47:55.173Z,15.00
2023-05-16T12:50:23.215Z,14.50
2023-05-16T12:52:52.612Z,14.30
2023-05-16T12:55:22.864Z,14.30
2023-05-16T12:57:50.422Z,14.30
2023-05-16T13:00:21.226Z,14.30
2023-05-16T13:02:48.750Z,14.70
2023-05-16T13:05:16.310Z,15.10
2023-05-16T13:07:43.273Z,15.40
2023-05-16T13:10:11.657Z,15.50
2023-05-16T13:12:39.823Z,15.20
2023-05-16T13:15:08.609Z,15.10
2023-05-16T13:17:36.223Z,15.30
2023-05-16T13:20:10.117Z,15.40
2023-05-16T13:22:37.517Z,15.50
2023-05-16T13:25:06.165Z,15.70
2023-05-16T13:27:34.133Z,15.60
2023-05-16T13:30:01.276Z,15.60
2023-05-16T13:32:28.227Z,15.40
2023-05-16T13:34:55.301Z,15.20
2023-05-16T13:37:24.418Z,15.20
2023-05-16T13:39:51.583Z,15.40
2023-05-16T13:42:18.563Z,15.30
2023-05-16T13:44:45.577Z,15.20
2023-05-16T13:47:12.592Z,14.80
2023-05-16T13:49:39.730Z,14.60
2023-05-16T13:52:06.986Z,14.30
2023-05-16T13:54:34.045Z,14.00
2023-05-16T13:57:02.225Z,14.00
2023-05-16T13:59:56.257Z,13.90
2023-05-16T14:02:16.520Z,14.10
2023-05-16T14:04:43.537Z,14.10
2023-05-16T14:07:10.726Z,14.00
2023-05-16T14:09:39.308Z,13.90
2023-05-16T14:12:07.851Z,13.70
2023-05-16T14:14:35.385Z,13.70
2023-05-16T14:17:03.893Z,13.70
2023-05-16T14:19:31.611Z,13.90
2023-05-16T14:21:58.863Z,14.30
2023-05-16T14:24:25.793Z,14.60
2023-05-16T14:26:58.231Z,14.70
2023-05-16T14:29:25.807Z,14.60
2023-05-16T14:31:53.310Z,14.40
2023-05-16T14:34:20.612Z,14.40
2023-05-16T14:36:47.953Z,14.50
2023-05-16T14:39:14.885Z,14.70
2023-05-16T14:41:41.825Z,14.70
2023-05-16T14:44:08.704Z,14.80
2023-05-16T14:46:35.906Z,15.00
2023-05-16T14:49:02.916Z,15.10
2023-05-16T14:51:30.038Z,15.20
2023-05-16T14:53:56.990Z,14.90
2023-05-16T14:56:26.918Z,14.50
2023-05-16T14:58:54.254Z,14.40
2023-05-16T15:01:21.587Z,14.30
2023-05-16T15:03:55.329Z,14.00
2023-05-16T15:06:25.436Z,13.60
2023-05-16T15:08:52.366Z,13.50
2023-05-16T15:11:19.624Z,13.30
2023-05-16T15:13:46.661Z,13.20
2023-05-16T15:16:13.810Z,12.80
2023-05-16T15:18:41.787Z,12.60
2023-05-16T15:21:09.167Z,12.20
2023-05-16T15:23:36.721Z,11.80
2023-05-16T15:26:04.604Z,11.60
2023-05-16T15:28:31.493Z,11.70
2023-05-16T15:30:58.541Z,12.00
2023-05-16T15:33:25.676Z,12.00
2023-05-16T15:35:53.056Z,11.90
2023-05-16T15:38:19.977Z,12.00
2023-05-16T15:40:47.890Z,11.90
2023-05-16T15:43:17.960Z,11.90
2023-05-16T15:45:45.652Z,12.00
2023-05-16T15:48:13.115Z,12.00
2023-05-16T15:50:40.235Z,11.90
2023-05-16T15:53:07.192Z,11.90
2023-05-16T15:55:34.338Z,11.70
2023-05-16T15:58:01.587Z,11.50
2023-05-16T16:00:28.757Z,11.30
2023-05-16T16:02:55.989Z,11.10
2023-05-16T16:05:25.495Z,10.90
2023-05-16T16:07:52.862Z,10.90
2023-05-16T16:10:21.903Z,11.10
2023-05-16T16:13:00.410Z,11.10
2023-05-16T16:15:31.083Z,11.00
2023-05-16T16:17:59.830Z,11.00
2023-05-16T16:20:27.340Z,10.90
2023-05-16T16:22:54.433Z,10.80
2023-05-16T16:25:21.795Z,10.90
2023-05-16T16:27:48.968Z,10.90
2023-05-16T16:30:15.873Z,10.80
2023-05-16T16:32:42.995Z,10.90
2023-05-16T16:35:10.139Z,10.80
2023-05-16T16:37:37.315Z,10.90
2023-05-16T16:40:04.981Z,10.90
2023-05-16T16:42:32.026Z,10.90
2023-05-16T16:44:59.275Z,10.90
2023-05-16T16:47:26.368Z,11.00
2023-05-16T16:49:53.736Z,11.00
2023-05-16T16:52:20.742Z,11.00
2023-05-16T16:54:47.775Z,11.00
2023-05-16T16:57:14.931Z,10.90
2023-05-16T16:59:42.106Z,10.90
2023-05-16T17:02:09.259Z,10.80
2023-05-16T17:04:36.751Z,10.90
2023-05-16T17:07:03.958Z,10.90
2023-05-16T17:09:31.048Z,10.90
2023-05-16T17:11:58.063Z,10.80
2023-05-16T17:14:24.918Z,10.80
2023-05-16T17:16:52.008Z,10.80
2023-05-16T17:19:19.193Z,11.00
2023-05-16T17:21:47.488Z,10.90
2023-05-16T17:24:14.547Z,10.90
2023-05-16T17:26:42.225Z,10.90
2023-05-16T17:29:09.414Z,11.00
2023-05-16T17:31:36.464Z,11.00
2023-05-16T17:34:03.383Z,10.90
2023-05-16T17:36:31.049Z,10.80
2023-05-16T17:38:59.324Z,10.90
2023-05-16T17:41:26.362Z,10.90
2023-05-16T17:43:53.510Z,10.90
2023-05-16T17:46:20.580Z,11.00
2023-05-16T17:48:47.693Z,11.20
2023-05-16T17:51:14.872Z,11.40
2023-05-16T17:53:41.981Z,11.40
2023-05-16T17:56:09.327Z,11.30
2023-05-16T17:58:36.578Z,11.10
2023-05-16T18:01:07.612Z,11.20
2023-05-16T18:03:35.097Z,11.10
2023-05-16T18:06:02.131Z,11.00
2023-05-16T18:08:29.151Z,10.90
2023-05-16T18:10:56.284Z,10.90
2023-05-16T18:13:23.905Z,10.90
2023-05-16T18:15:51.012Z,11.00
2023-05-16T18:18:18.114Z,11.10
2023-05-16T18:20:46.143Z,11.00
2023-05-16T18:23:13.154Z,10.90
2023-05-16T18:25:40.026Z,10.90
2023-05-16T18:28:07.750Z,10.90
2023-05-16T18:30:37.689Z,10.90
2023-05-16T18:33:06.630Z,11.00
2023-05-16T18:35:34.059Z,11.00
2023-05-16T18:38:04.051Z,11.00
2023-05-16T18:40:31.414Z,10.80
2023-05-16T18:42:58.833Z,10.80
2023-05-16T18:45:26.460Z,10.80
2023-05-16T18:47:53.671Z,10.70
2023-05-16T18:50:20.761Z,10.70
2023-05-16T18:52:47.694Z,10.70
2023-05-16T18:55:14.780Z,10.70
2023-05-16T18:57:41.993Z,10.70
2023-05-16T19:00:09.480Z,10.70
2023-05-16T19:02:42.099Z,10.60
2023-05-16T19:05:10.797Z,10.60
2023-05-16T19:07:38.126Z,10.60
2023-05-16T19:10:05.675Z,10.60
2023-05-16T19:12:32.857Z,10.50
2023-05-16T19:14:59.792Z,10.50
2023-05-16T19:17:26.919Z,10.50
2023-05-16T19:19:53.952Z,10.40
2023-05-16T19:22:21.010Z,10.30
2023-05-16T19:24:48.305Z,10.30
2023-05-16T19:27:18.079Z,10.30
2023-05-16T19:29:45.046Z,10.30
2023-05-16T19:32:12.193Z,10.40
2023-05-16T19:34:39.296Z,10.40
2023-05-16T19:37:06.361Z,10.40
2023-05-16T19:39:33.268Z,10.40
2023-05-16T19:42:07.185Z,10.40
2023-05-16T19:44:34.988Z,10.30
2023-05-16T19:47:01.946Z,10.30
2023-05-16T19:49:30.550Z,10.30
2023-05-16T19:51:57.598Z,10.30
2023-05-16T19:54:24.610Z,10.30
2023-05-16T19:56:51.574Z,10.30
2023-05-16T19:59:22.435Z,10.20
2023-05-16T20:01:49.544Z,10.20
2023-05-16T20:04:16.761Z,10.20
2023-05-16T20:06:43.789Z,10.20
2023-05-16T20:09:11.412Z,10.20
2023-05-16T20:11:38.572Z,10.20
2023-05-16T20:14:05.619Z,10.30
2023-05-16T20:16:32.629Z,10.30
2023-05-16T20:18:59.709Z,10.30
2023-05-16T20:21:26.789Z,10.20
2023-05-16T20:23:53.748Z,10.20
2023-05-16T20:26:21.472Z,10.20
2023-05-16T20:28:48.478Z,10.20
2023-05-16T20:31:15.468Z,10.10
2023-05-16T20:33:42.478Z,10.20
2023-05-16T20:36:12.005Z,10.30
2023-05-16T20:38:39.075Z,10.30
2023-05-16T20:41:06.993Z,10.20
2023-05-16T20:43:34.107Z,10.20
2023-05-16T20:46:01.112Z,10.20
2023-05-16T20:48:28.180Z,10.20
2023-05-16T20:50:56.269Z,10.20
2023-05-16T20:53:23.489Z,10.20
2023-05-16T20:55:50.804Z,10.20
2023-05-16T20:58:18.008Z,10.20
2023-05-16T21:00:44.934Z,10.10
2023-05-16T21:03:12.613Z,10.10
2023-05-16T21:05:39.859Z,10.10
2023-05-16T21:08:07.104Z,10.10
2023-05-16T21:10:34.137Z,10.20
2023-05-16T21:13:01.231Z,10.20
2023-05-16T21:15:28.566Z,10.20
2023-05-16T21:17:55.867Z,10.10
2023-05-16T21:20:23.078Z,10.10
2023-05-16T21:22:50.187Z,10.10
2023-05-16T21:25:20.300Z,10.10
2023-05-16T21:27:47.213Z,10.10
2023-05-16T21:30:14.955Z,10.00
2023-05-16T21:32:42.155Z,10.00
2023-05-16T21:35:09.302Z,10.00
2023-05-16T21:37:36.169Z,9.90
2023-05-16T21:40:03.907Z,9.80
2023-05-16T21:42:31.060Z,9.80
2023-05-16T21:44:57.998Z,9.90
2023-05-16T21:47:26.220Z,10.00
2023-05-16T21:49:53.253Z,10.10
2023-05-16T21:52:20.232Z,10.10
2023-05-16T21:54:51.497Z,10.10
2023-05-16T21:57:19.614Z,10.00
2023-05-16T21:59:46.729Z,10.10
2023-05-16T22:02:13.642Z,10.20
2023-05-16T22:04:40.572Z,10.10
2023-05-16T22:07:07.500Z,10.10
2023-05-16T22:09:34.458Z,10.10
2023-05-16T22:12:01.484Z,10.00
2023-05-16T22:14:28.485Z,10.10
2023-05-16T22:16:55.503Z,10.10
2023-05-16T22:19:22.441Z,10.10
2023-05-16T22:21:49.369Z,10.00
2023-05-16T22:24:16.272Z,10.10
2023-05-16T22:26:43.258Z,10.10
2023-05-16T22:29:10.278Z,10.10
2023-05-16T22:31:37.292Z,10.00
2023-05-16T22:34:04.300Z,9.90
2023-05-16T22:36:31.425Z,9.80
2023-05-16T22:38:58.340Z,9.80
2023-05-16T22:41:25.293Z,9.80
2023-05-16T22:43:52.969Z,9.70
2023-05-16T22:46:19.942Z,9.70
2023-05-16T22:48:46.904Z,9.60
2023-05-16T22:51:14.060Z,9.60
2023-05-16T22:53:40.983Z,9.50
2023-05-16T22:56:08.456Z,9.40
2023-05-16T22:58:35.707Z,9.40
2023-05-16T23:01:03.353Z,9.20
2023-05-16T23:03:30.453Z,9.20
2023-05-16T23:05:57.478Z,9.10
2023-05-16T23:08:24.351Z,9.10
2023-05-16T23:10:51.961Z,9.10
2023-05-16T23:13:19.108Z,9.10
2023-05-16T23:15:45.999Z,9.10
2023-05-16T23:18:12.980Z,9.10
2023-05-16T23:20:39.941Z,9.10
2023-05-16T23:23:06.819Z,9.10
2023-05-16T23:25:33.753Z,9.00
2023-05-16T23:28:00.686Z,9.00
2023-05-16T23:30:27.659Z,9.10
2023-05-16T23:32:54.696Z,9.10
2023-05-16T23:35:21.844Z,9.20
2023-05-16T23:37:48.838Z,9.20
2023-05-16T23:40:15.843Z,9.20
2023-05-16T23:42:42.739Z,9.10
2023-05-16T23:45:10.422Z,9.10
2023-05-16T23:47:37.382Z,9.10
2023-05-16T23:50:04.565Z,9.00
2023-05-16T23:52:31.632Z,9.00
2023-05-16T23:54:58.540Z,8.90
2023-05-16T23:57:25.665Z,8.90
2023-05-16T23:59:52.877Z,8.80
